sensor_id;sensor_type;location;lat;lon;timestamp;pressure;altitude;pressure_sealevel;temperature;humidity
9229;BME280;4649;42.644;23.284;2023-05-12T06:20:21;93241.66;;;7.09;100.00
9229;BME280;4649;42.644;23.284;2023-05-12T06:23:33;93381.53;;;8.18;100.00
9229;BME280;4649;42.644;23.284;2023-05-12T06:26:17;93389.44;;;8.22;100.00
9229;BME280;4649;42.644;23.284;2023-05-12T06:33:07;93388.88;;;7.89;100.00
9229;BME280;4649;42.644;23.284;2023-05-12T07:27:57;93312.28;;;7.47;100.00
9229;BME280;4649;42.644;23.284;2023-05-12T11:45:02;93172.47;;;10.38;91.16
9229;BME280;4649;42.644;23.284;2023-05-12T12:07:31;93283.97;;;11.27;88.57
9229;BME280;4649;42.644;23.284;2023-05-12T12:10:27;93380.00;;;12.17;89.36
9229;BME280;4649;42.644;23.284;2023-05-12T12:13:48;93300.97;;;11.28;86.77
9229;BME280;4649;42.644;23.284;2023-05-12T12:16:32;93250.44;;;11.08;87.18
9229;BME280;4649;42.644;23.284;2023-05-12T12:22:53;93267.25;;;11.51;87.22
9229;BME280;4649;42.644;23.284;2023-05-12T12:35:00;93199.69;;;10.93;84.77
9229;BME280;4649;42.644;23.284;2023-05-12T12:38:00;93380.72;;;12.17;84.38
9229;BME280;4649;42.644;23.284;2023-05-12T13:01:05;93387.13;;;12.36;75.70
9229;BME280;4649;42.644;23.284;2023-05-12T14:14:36;93149.97;;;11.28;60.43
9229;BME280;4649;42.644;23.284;2023-05-12T14:24:16;93309.16;;;12.20;61.35
9229;BME280;4649;42.644;23.284;2023-05-12T14:27:15;93218.47;;;11.51;60.09
9229;BME280;4649;42.644;23.284;2023-05-12T14:34:00;93265.31;;;11.84;60.66
9229;BME280;4649;42.644;23.284;2023-05-12T14:36:38;93342.94;;;12.47;61.55
9229;BME280;4649;42.644;23.284;2023-05-12T14:39:30;93168.69;;;11.21;61.45
9229;BME280;4649;42.644;23.284;2023-05-12T14:42:35;93202.69;;;11.27;62.43
9229;BME280;4649;42.644;23.284;2023-05-12T15:06:14;93098.28;;;10.72;64.38
9229;BME280;4649;42.644;23.284;2023-05-12T15:08:43;93245.56;;;11.89;64.30
9229;BME280;4649;42.644;23.284;2023-05-12T15:11:10;93331.84;;;12.50;64.25
9229;BME280;4649;42.644;23.284;2023-05-12T15:13:42;93339.00;;;12.37;64.73
9229;BME280;4649;42.644;23.284;2023-05-12T15:16:28;93159.38;;;11.55;63.23
9229;BME280;4649;42.644;23.284;2023-05-12T15:30:02;93134.19;;;11.59;63.44
9229;BME280;4649;42.644;23.284;2023-05-12T15:32:47;93309.00;;;12.97;63.04
9229;BME280;4649;42.644;23.284;2023-05-12T15:35:35;93326.09;;;12.70;61.41
9229;BME280;4649;42.644;23.284;2023-05-12T15:44:04;93308.34;;;12.69;63.48
9229;BME280;4649;42.644;23.284;2023-05-12T15:47:06;93293.75;;;12.72;62.60
9229;BME280;4649;42.644;23.284;2023-05-12T15:49:49;93312.66;;;13.10;64.68
9229;BME280;4649;42.644;23.284;2023-05-12T15:52:18;93310.78;;;12.78;62.23
9229;BME280;4649;42.644;23.284;2023-05-12T15:59:20;93307.94;;;12.16;63.31
9229;BME280;4649;42.644;23.284;2023-05-12T17:55:34;93374.00;;;11.00;60.31
9229;BME280;4649;42.644;23.284;2023-05-12T17:58:08;93279.91;;;10.32;59.84
9229;BME280;4649;42.644;23.284;2023-05-12T18:03:27;93279.69;;;10.35;59.79
9229;BME280;4649;42.644;23.284;2023-05-12T18:06:21;93173.56;;;9.63;59.42
9229;BME280;4649;42.644;23.284;2023-05-12T18:08:48;93167.41;;;9.62;59.65
9229;BME280;4649;42.644;23.284;2023-05-12T18:11:23;93211.75;;;9.81;59.47
9229;BME280;4649;42.644;23.284;2023-05-12T18:13:51;93407.78;;;11.05;59.81
9229;BME280;4649;42.644;23.284;2023-05-12T18:16:22;93265.53;;;10.10;61.35
9229;BME280;4649;42.644;23.284;2023-05-12T18:18:54;93287.06;;;10.35;59.87
9229;BME280;4649;42.644;23.284;2023-05-12T18:21:22;93399.91;;;11.12;59.80
9229;BME280;4649;42.644;23.284;2023-05-12T18:23:51;93199.69;;;9.76;60.25
9229;BME280;4649;42.644;23.284;2023-05-12T18:29:12;93310.53;;;10.54;59.60
9229;BME280;4649;42.644;23.284;2023-05-12T18:35:07;93392.41;;;11.49;59.28
9229;BME280;4649;42.644;23.284;2023-05-12T18:37:35;93398.56;;;11.44;59.82
9229;BME280;4649;42.644;23.284;2023-05-12T18:40:34;93273.09;;;10.47;59.66
9229;BME280;4649;42.644;23.284;2023-05-12T18:43:18;93224.00;;;10.18;60.04
9229;BME280;4649;42.644;23.284;2023-05-12T18:45:47;93277.59;;;10.56;60.35
9229;BME280;4649;42.644;23.284;2023-05-12T18:48:15;93333.59;;;10.97;60.31
9229;BME280;4649;42.644;23.284;2023-05-12T18:50:45;93426.19;;;11.48;59.36
9229;BME280;4649;42.644;23.284;2023-05-12T18:53:21;93405.72;;;11.47;59.66
9229;BME280;4649;42.644;23.284;2023-05-12T18:55:48;93317.00;;;10.68;60.57
9229;BME280;4649;42.644;23.284;2023-05-12T18:58:28;93414.34;;;11.46;61.13
9229;BME280;4649;42.644;23.284;2023-05-12T19:01:00;93275.78;;;10.42;61.43
9229;BME280;4649;42.644;23.284;2023-05-12T19:03:29;93291.81;;;10.51;61.50
9229;BME280;4649;42.644;23.284;2023-05-12T19:06:07;93423.47;;;11.48;61.58
9229;BME280;4649;42.644;23.284;2023-05-12T19:12:16;93318.75;;;10.71;62.24
9229;BME280;4649;42.644;23.284;2023-05-12T19:31:58;93445.59;;;11.41;61.99
9229;BME280;4649;42.644;23.284;2023-05-12T21:28:35;93383.91;;;10.62;63.25
9229;BME280;4649;42.644;23.284;2023-05-12T21:31:03;93318.03;;;9.98;62.99
9229;BME280;4649;42.644;23.284;2023-05-12T21:33:52;93533.84;;;11.48;65.00
9229;BME280;4649;42.644;23.284;2023-05-12T21:36:20;93523.88;;;11.70;65.72
9229;BME280;4649;42.644;23.284;2023-05-12T21:38:50;93536.97;;;11.82;64.60
9229;BME280;4649;42.644;23.284;2023-05-12T21:41:21;93340.72;;;10.42;67.12
9229;BME280;4649;42.644;23.284;2023-05-12T21:43:56;93408.00;;;11.01;69.56
9229;BME280;4649;42.644;23.284;2023-05-12T21:46:25;93539.53;;;12.02;66.83
9229;BME280;4649;42.644;23.284;2023-05-12T21:48:53;93558.28;;;12.06;66.11
9229;BME280;4649;42.644;23.284;2023-05-12T21:51:22;93458.63;;;11.32;69.48
9229;BME280;4649;42.644;23.284;2023-05-12T21:53:51;93373.19;;;10.84;69.33
9229;BME280;4649;42.644;23.284;2023-05-12T21:56:20;93549.44;;;12.11;70.24
9229;BME280;4649;42.644;23.284;2023-05-12T21:59:01;93380.00;;;11.15;70.80
9229;BME280;4649;42.644;23.284;2023-05-12T22:01:30;93463.56;;;11.33;73.01
9229;BME280;4649;42.644;23.284;2023-05-12T22:04:11;93438.53;;;11.02;76.16
9229;BME280;4649;42.644;23.284;2023-05-12T22:06:40;93461.97;;;11.10;76.12
9229;BME280;4649;42.644;23.284;2023-05-12T22:09:09;93397.38;;;10.20;81.60
9229;BME280;4649;42.644;23.284;2023-05-12T22:11:57;93386.06;;;9.91;87.79
9229;BME280;4649;42.644;23.284;2023-05-12T22:15:00;93365.81;;;9.56;95.01
9229;BME280;4649;42.644;23.284;2023-05-12T22:20:37;93555.13;;;10.88;97.80
9229;BME280;4649;42.644;23.284;2023-05-12T22:23:20;93344.75;;;9.34;96.62
9229;BME280;4649;42.644;23.284;2023-05-12T22:29:40;93549.22;;;10.33;100.00
